Time;durP1;ratioP1;P1;durP2;ratioP2;P2;SDS_P1;SDS_P2;PMS_P1;PMS_P2;Temp;Humidity;BMP_temperature;BMP_pressure;BME280_temperature;BME280_humidity;BME280_pressure;Samples;Min_cycle;Max_cycle;Signal;HPM_P1;HPM_P2
2024/01/25 00:00:06;;;;;;;33.25;5.53;;;9.30;99.90;;;;;;5026565;28;20715;-69
2024/01/25 00:02:33;;;;;;;45.17;5.65;;;9.30;99.90;;;;;;5028811;28;20937;-68
2024/01/25 00:05:01;;;;;;;41.55;5.50;;;9.30;99.90;;;;;;5025059;28;20100;-68
2024/01/25 00:07:29;;;;;;;33.97;3.80;;;9.30;99.90;;;;;;5027956;28;20039;-68
2024/01/25 00:09:55;;;;;;;;;;;9.30;99.90;;;;;;5028283;28;20025;-68
2024/01/25 00:12:25;;;;;;;32.50;4.03;;;9.30;99.90;;;;;;5028202;28;20398;-69
2024/01/25 00:14:54;;;;;;;30.23;3.65;;;9.20;99.90;;;;;;5027132;28;20212;-68
2024/01/25 00:17:19;;;;;;;34.95;4.88;;;9.20;99.90;;;;;;5028616;28;20140;-68
2024/01/25 00:19:45;;;;;;;25.60;4.22;;;9.30;99.90;;;;;;5027594;28;20612;-68
2024/01/25 00:22:13;;;;;;;22.73;4.35;;;9.30;99.90;;;;;;5028532;28;20028;-68
2024/01/25 00:24:39;;;;;;;35.03;5.15;;;9.20;99.90;;;;;;5031644;28;20037;-68
2024/01/25 00:27:04;;;;;;;26.38;4.30;;;9.30;99.90;;;;;;5028893;28;20125;-68
2024/01/25 00:29:30;;;;;;;30.00;5.05;;;9.20;99.90;;;;;;5031655;28;20037;-68
2024/01/25 00:32:01;;;;;;;29.70;4.20;;;9.30;99.90;;;;;;5024532;28;20124;-68
2024/01/25 00:34:27;;;;;;;33.67;4.38;;;9.30;99.90;;;;;;5027246;28;20025;-68
2024/01/25 00:36:54;;;;;;;22.17;3.92;;;9.20;99.90;;;;;;5030740;28;20131;-68
2024/01/25 00:39:20;;;;;;;28.77;5.27;;;9.30;99.90;;;;;;5030354;28;20742;-68
2024/01/25 00:41:50;;;;;;;32.55;4.72;;;9.30;99.90;;;;;;5027287;28;20040;-68
2024/01/25 00:44:16;;;;;;;36.13;4.43;;;9.30;99.90;;;;;;5027633;28;20025;-68
2024/01/25 00:46:46;;;;;;;25.88;4.47;;;9.30;99.90;;;;;;5020143;23;20124;-68
2024/01/25 00:49:14;;;;;;;27.40;3.78;;;9.20;99.90;;;;;;5006251;28;20030;-68
2024/01/25 00:51:48;;;;;;;;;;;9.20;99.90;;;;;;5006731;28;20642;-68
2024/01/25 00:54:17;;;;;;;27.20;4.03;;;9.20;99.90;;;;;;5006085;28;20246;-68
2024/01/25 00:56:45;;;;;;;26.30;4.35;;;9.20;99.90;;;;;;5010984;28;20630;-68
2024/01/25 00:59:11;;;;;;;37.03;4.95;;;9.20;99.90;;;;;;5008782;28;20053;-68
2024/01/25 01:01:39;;;;;;;34.30;4.97;;;9.20;99.90;;;;;;5011160;28;20028;-68
2024/01/25 01:04:05;;;;;;;35.90;4.85;;;9.20;99.90;;;;;;5005056;28;20512;-68
2024/01/25 01:06:33;;;;;;;30.08;5.10;;;9.20;99.90;;;;;;5007257;28;20052;-68
2024/01/25 01:08:59;;;;;;;40.47;4.78;;;9.20;99.90;;;;;;5005173;28;20042;-68
2024/01/25 01:11:25;;;;;;;34.15;4.15;;;9.20;99.90;;;;;;5004279;28;20034;-68
2024/01/25 01:13:55;;;;;;;31.98;4.15;;;9.10;99.90;;;;;;5005436;28;20038;-68
2024/01/25 01:16:20;;;;;;;36.17;4.78;;;9.10;99.90;;;;;;5006308;28;20034;-69
2024/01/25 01:18:48;;;;;;;30.63;5.80;;;9.10;99.90;;;;;;5005926;28;20038;-68
2024/01/25 01:21:14;;;;;;;33.33;5.20;;;9.10;99.90;;;;;;5004330;28;20042;-68
2024/01/25 01:23:40;;;;;;;36.42;3.88;;;9.10;99.90;;;;;;5006244;28;20030;-68
2024/01/25 01:26:08;;;;;;;30.10;4.72;;;9.00;99.90;;;;;;5006257;28;20026;-68
2024/01/25 01:28:33;;;;;;;;;;;9.00;99.90;;;;;;5009126;28;20455;-68
2024/01/25 01:31:02;;;;;;;26.98;4.28;;;8.90;99.90;;;;;;5002955;28;19945;-68
2024/01/25 01:33:30;;;;;;;29.27;4.57;;;8.90;99.90;;;;;;5003471;28;20475;-68
2024/01/25 01:35:58;;;;;;;26.52;4.95;;;8.90;99.90;;;;;;5005746;28;20045;-68
2024/01/25 01:38:23;;;;;;;;;;;8.90;99.90;;;;;;5001834;28;20053;-68
2024/01/25 01:40:51;;;;;;;23.55;4.05;;;8.80;99.90;;;;;;5004976;28;20316;-68
2024/01/25 01:43:20;;;;;;;33.92;4.80;;;8.80;99.90;;;;;;5004541;28;20033;-68
2024/01/25 01:45:50;;;;;;;32.30;4.47;;;8.80;99.90;;;;;;5001863;28;20034;-68
2024/01/25 01:48:19;;;;;;;30.40;5.30;;;8.80;99.90;;;;;;5003154;28;20037;-68
2024/01/25 01:50:47;;;;;;;27.95;4.82;;;8.80;99.90;;;;;;4995943;28;20038;-68
2024/01/25 01:53:13;;;;;;;;;;;8.80;99.90;;;;;;5000113;28;20060;-68
2024/01/25 01:55:41;;;;;;;34.97;4.90;;;8.80;99.90;;;;;;4998082;28;19960;-68
2024/01/25 01:58:12;;;;;;;37.28;4.68;;;8.80;99.90;;;;;;5002044;28;20030;-68
2024/01/25 02:00:40;;;;;;;32.58;4.10;;;8.70;99.90;;;;;;4998936;28;20045;-68
2024/01/25 02:03:06;;;;;;;;;;;8.70;99.90;;;;;;4999070;28;20058;-68
2024/01/25 02:05:32;;;;;;;28.08;4.07;;;8.70;99.90;;;;;;5003501;28;19918;-68
2024/01/25 02:08:00;;;;;;;32.67;4.85;;;8.60;99.90;;;;;;5008694;28;20403;-68
2024/01/25 02:10:25;;;;;;;28.27;4.93;;;8.60;99.90;;;;;;4998169;28;20049;-68
2024/01/25 02:12:53;;;;;;;28.98;4.15;;;8.60;99.90;;;;;;4999392;28;20118;-68
2024/01/25 02:15:19;;;;;;;40.47;4.70;;;8.60;99.90;;;;;;4995878;28;20029;-68
2024/01/25 02:17:45;;;;;;;30.60;3.70;;;8.50;99.90;;;;;;5004869;28;20054;-68
2024/01/25 02:20:11;;;;;;;31.92;4.75;;;8.50;99.90;;;;;;5000870;28;20116;-68
2024/01/25 02:22:36;;;;;;;29.48;4.32;;;8.50;99.90;;;;;;5001979;28;20310;-68
2024/01/25 02:25:02;;;;;;;32.45;4.07;;;8.50;99.90;;;;;;5003647;28;20026;-69
2024/01/25 02:27:28;;;;;;;30.08;4.22;;;8.50;99.90;;;;;;4998143;28;20041;-68
2024/01/25 02:29:53;;;;;;;25.75;4.32;;;8.50;99.90;;;;;;5001214;28;20516;-68
2024/01/25 02:32:19;;;;;;;29.25;3.70;;;8.50;99.90;;;;;;5002565;28;20038;-70
2024/01/25 02:34:44;;;;;;;38.20;4.53;;;8.50;99.90;;;;;;4998770;28;24701;-68
2024/01/25 02:37:14;;;;;;;34.97;4.10;;;8.50;99.90;;;;;;4997731;28;20045;-68
2024/01/25 02:39:44;;;;;;;31.85;4.28;;;8.50;99.90;;;;;;5002747;28;20124;-68
2024/01/25 02:42:10;;;;;;;35.72;4.45;;;8.50;99.90;;;;;;5009326;28;20038;-68
2024/01/25 02:44:38;;;;;;;29.10;4.38;;;8.50;99.90;;;;;;5010869;28;20147;-68
2024/01/25 02:47:03;;;;;;;;;;;8.50;99.90;;;;;;5008567;28;20117;-68
2024/01/25 02:49:29;;;;;;;28.15;4.00;;;8.50;99.90;;;;;;5008280;28;20021;-68
2024/01/25 02:51:54;;;;;;;35.28;4.80;;;8.50;99.90;;;;;;5011707;28;20489;-68
2024/01/25 02:54:22;;;;;;;30.08;3.63;;;8.50;99.90;;;;;;5004946;28;20449;-68
2024/01/25 02:56:50;;;;;;;35.30;4.50;;;8.50;99.90;;;;;;5006156;28;20508;-68
2024/01/25 02:59:16;;;;;;;;;;;8.60;99.90;;;;;;5003493;28;20120;-68
2024/01/25 03:01:42;;;;;;;34.95;4.25;;;8.50;99.90;;;;;;5007388;28;20347;-68
2024/01/25 03:04:08;;;;;;;34.78;4.88;;;8.50;99.90;;;;;;4999231;28;20026;-68
2024/01/25 03:06:33;;;;;;;31.60;4.22;;;8.50;99.90;;;;;;5003328;28;20140;-68
2024/01/25 03:09:04;;;;;;;26.00;4.00;;;8.60;99.90;;;;;;5002634;28;20115;-68
2024/01/25 03:11:34;;;;;;;35.33;4.55;;;8.60;99.90;;;;;;5007684;28;20034;-68
2024/01/25 03:14:02;;;;;;;36.70;3.80;;;8.60;99.90;;;;;;5003251;28;20038;-68
2024/01/25 03:16:30;;;;;;;23.77;3.78;;;8.60;99.90;;;;;;5007140;28;20054;-68
2024/01/25 03:18:55;;;;;;;31.10;4.68;;;8.50;99.90;;;;;;5001863;28;20041;-68
2024/01/25 03:21:25;;;;;;;35.83;4.80;;;8.50;99.90;;;;;;5004518;28;20034;-68
2024/01/25 03:23:51;;;;;;;31.55;4.57;;;8.60;99.90;;;;;;5011482;28;20053;-68
2024/01/25 03:26:17;;;;;;;27.08;5.00;;;8.50;99.90;;;;;;5007368;28;20062;-68
2024/01/25 03:28:43;;;;;;;32.20;4.43;;;8.60;99.90;;;;;;5011418;28;20623;-68
2024/01/25 03:31:13;;;;;;;27.65;3.95;;;8.60;99.90;;;;;;5007980;28;20030;-68
2024/01/25 03:33:39;;;;;;;31.38;4.25;;;8.60;99.90;;;;;;5007067;28;20448;-68
2024/01/25 03:36:07;;;;;;;27.17;4.57;;;8.50;99.90;;;;;;5006713;28;20076;-68
2024/01/25 03:38:35;;;;;;;32.67;4.80;;;8.50;99.90;;;;;;5009403;28;20037;-68
2024/01/25 03:41:02;;;;;;;29.15;4.68;;;8.50;99.90;;;;;;5008646;28;20551;-68
2024/01/25 03:43:30;;;;;;;39.45;4.80;;;8.50;99.90;;;;;;5006533;28;20034;-68
2024/01/25 03:45:56;;;;;;;39.20;4.40;;;8.50;99.90;;;;;;5008896;28;20034;-68
2024/01/25 03:48:21;;;;;;;25.40;3.60;;;8.50;99.90;;;;;;5007835;28;20041;-68
2024/01/25 03:50:50;;;;;;;35.85;4.97;;;8.50;99.90;;;;;;5003041;28;20042;-68
2024/01/25 03:53:15;;;;;;;31.10;4.78;;;8.50;99.90;;;;;;5010158;28;20042;-68
2024/01/25 03:55:44;;;;;;;29.98;4.95;;;8.40;99.90;;;;;;5008164;28;20037;-68
2024/01/25 03:58:14;;;;;;;30.92;4.45;;;8.50;99.90;;;;;;5013198;28;20109;-68
2024/01/25 04:00:42;;;;;;;35.75;4.32;;;8.40;99.90;;;;;;5008308;28;20121;-68
2024/01/25 04:03:09;;;;;;;;;;;8.40;99.90;;;;;;5009719;28;20041;-68
2024/01/25 04:05:39;;;;;;;26.25;3.85;;;8.40;99.90;;;;;;5012946;28;19924;-68
2024/01/25 04:08:05;;;;;;;24.30;4.28;;;8.40;99.90;;;;;;5007268;28;20034;-68
2024/01/25 04:10:33;;;;;;;31.00;4.57;;;8.40;99.90;;;;;;5023946;28;20022;-68
2024/01/25 04:13:02;;;;;;;24.35;3.92;;;8.40;99.90;;;;;;5005978;28;20113;-68
2024/01/25 04:15:27;;;;;;;32.88;4.85;;;8.40;99.90;;;;;;5008476;28;20041;-68
2024/01/25 04:17:55;;;;;;;39.25;4.22;;;8.40;99.90;;;;;;5008584;28;20029;-68
2024/01/25 04:20:21;;;;;;;28.00;4.35;;;8.40;99.90;;;;;;5006399;28;20463;-68
2024/01/25 04:22:47;;;;;;;36.20;4.20;;;8.30;99.90;;;;;;5007518;28;20030;-68
2024/01/25 04:25:13;;;;;;;32.55;4.53;;;8.30;99.90;;;;;;5008833;28;20017;-68
2024/01/25 04:27:40;;;;;;;27.92;4.28;;;8.30;99.90;;;;;;5011475;28;20408;-68
2024/01/25 04:30:07;;;;;;;23.27;4.03;;;8.30;99.90;;;;;;5005840;28;20030;-68
2024/01/25 04:32:33;;;;;;;21.42;3.70;;;8.30;99.90;;;;;;5009686;28;20080;-68
2024/01/25 04:34:59;;;;;;;23.25;4.53;;;8.20;99.90;;;;;;5010886;28;20074;-68
2024/01/25 04:37:25;;;;;;;34.40;3.90;;;8.20;99.90;;;;;;5008554;28;20833;-68
2024/01/25 04:39:55;;;;;;;35.47;4.35;;;8.20;99.90;;;;;;5008209;28;20068;-68
2024/01/25 04:42:20;;;;;;;27.90;4.15;;;8.20;99.90;;;;;;5006902;28;20034;-68
2024/01/25 04:44:48;;;;;;;23.52;3.58;;;8.10;99.90;;;;;;5006287;28;20085;-68
2024/01/25 04:47:14;;;;;;;33.25;5.55;;;8.10;99.90;;;;;;5008833;28;20038;-68
2024/01/25 04:49:40;;;;;;;22.65;3.80;;;8.10;99.90;;;;;;5005575;28;20033;-68
2024/01/25 04:52:08;;;;;;;37.65;4.20;;;8.00;99.90;;;;;;5007772;28;20113;-68
2024/01/25 04:54:33;;;;;;;27.67;4.22;;;8.00;99.90;;;;;;5000864;28;20107;-68
2024/01/25 04:56:59;;;;;;;24.00;3.40;;;8.00;99.90;;;;;;5013737;28;20092;-68
2024/01/25 04:59:25;;;;;;;26.73;3.90;;;8.00;99.90;;;;;;5011813;28;20073;-68
2024/01/25 05:01:55;;;;;;;30.33;4.07;;;8.00;99.90;;;;;;5001485;28;20066;-68
2024/01/25 05:04:20;;;;;;;32.00;4.57;;;7.90;99.90;;;;;;5004338;28;20515;-68
2024/01/25 05:06:46;;;;;;;30.48;4.32;;;7.90;99.90;;;;;;5006260;28;20069;-68
2024/01/25 05:09:16;;;;;;;31.23;3.83;;;7.90;99.90;;;;;;5003114;28;20505;-68
2024/01/25 05:11:41;;;;;;;28.48;4.30;;;7.80;99.90;;;;;;5010099;28;20392;-68
2024/01/25 05:14:07;;;;;;;37.97;5.75;;;7.80;99.90;;;;;;5006761;28;20034;-68
2024/01/25 05:16:35;;;;;;;33.65;4.18;;;7.80;99.90;;;;;;5006201;28;20141;-68
2024/01/25 05:19:00;;;;;;;31.45;4.55;;;7.80;99.90;;;;;;5000078;28;20095;-68
2024/01/25 05:21:28;;;;;;;28.98;3.95;;;7.80;99.90;;;;;;5008097;28;20026;-68
2024/01/25 05:23:56;;;;;;;;;;;7.70;99.90;;;;;;5009127;28;20029;-68
2024/01/25 05:26:24;;;;;;;29.42;5.00;;;7.80;99.90;;;;;;5005663;28;19913;-68
2024/01/25 05:28:50;;;;;;;;;;;7.70;99.90;;;;;;5007331;28;20030;-68
2024/01/25 05:31:18;;;;;;;29.08;4.18;;;7.80;99.90;;;;;;5008464;28;19909;-68
2024/01/25 05:33:43;;;;;;;;;;;7.70;99.90;;;;;;5004673;28;20064;-68
2024/01/25 05:36:09;;;;;;;36.00;4.53;;;7.80;99.90;;;;;;5002530;28;20352;-68
2024/01/25 05:38:35;;;;;;;29.27;4.50;;;7.80;99.90;;;;;;5003643;28;20038;-68
2024/01/25 05:41:01;;;;;;;31.73;4.47;;;7.80;99.90;;;;;;5007253;28;20688;-68
2024/01/25 05:43:31;;;;;;;24.90;4.05;;;7.80;99.90;;;;;;4999915;28;20052;-68
2024/01/25 05:45:59;;;;;;;23.17;3.00;;;7.70;99.90;;;;;;5007343;28;20080;-68
2024/01/25 05:48:24;;;;;;;28.02;4.07;;;7.80;99.90;;;;;;5003903;28;20173;-68
2024/01/25 05:50:50;;;;;;;29.58;3.80;;;7.80;99.90;;;;;;5000919;28;20469;-68
2024/01/25 05:53:19;;;;;;;37.15;5.10;;;7.80;99.90;;;;;;5002022;28;20042;-68
2024/01/25 05:55:45;;;;;;;37.92;4.55;;;7.80;99.90;;;;;;5003480;28;20048;-68
2024/01/25 05:58:15;;;;;;;26.52;3.22;;;7.90;99.90;;;;;;5002003;28;20026;-68
2024/01/25 06:00:40;;;;;;;30.50;4.25;;;7.90;99.90;;;;;;5001237;28;20107;-68
2024/01/25 06:03:08;;;;;;;24.70;3.63;;;7.90;99.90;;;;;;5005474;28;20030;-68
2024/01/25 06:05:34;;;;;;;;;;;7.90;99.90;;;;;;5005931;28;20026;-68
2024/01/25 06:08:00;;;;;;;26.65;3.80;;;7.90;99.90;;;;;;5004045;28;19928;-68
2024/01/25 06:10:25;;;;;;;26.08;3.55;;;7.90;99.90;;;;;;5003349;28;20032;-68
2024/01/25 06:12:51;;;;;;;27.45;4.00;;;7.90;99.90;;;;;;5008626;28;20026;-68
2024/01/25 06:15:19;;;;;;;29.55;3.83;;;7.90;99.90;;;;;;5003800;28;20404;-68
2024/01/25 06:17:44;;;;;;;27.13;3.78;;;7.90;99.90;;;;;;4998811;28;20034;-68
2024/01/25 06:20:10;;;;;;;28.35;3.35;;;7.90;99.90;;;;;;5000463;28;20045;-68
2024/01/25 06:22:36;;;;;;;36.97;4.93;;;7.90;99.90;;;;;;4999668;28;20032;-68
2024/01/25 06:25:03;;;;;;;21.38;3.97;;;7.90;99.90;;;;;;4997839;28;20035;-68
2024/01/25 06:27:31;;;;;;;35.57;4.47;;;7.90;99.90;;;;;;4999698;28;20029;-68
2024/01/25 06:29:57;;;;;;;28.80;3.88;;;7.90;99.90;;;;;;5002215;28;20274;-68
2024/01/25 06:32:24;;;;;;;23.45;3.80;;;7.90;99.90;;;;;;4997190;28;20463;-68
2024/01/25 06:34:53;;;;;;;34.15;4.70;;;7.90;99.90;;;;;;5006343;28;20041;-68
2024/01/25 06:37:18;;;;;;;34.78;4.28;;;7.90;99.90;;;;;;5006896;28;20038;-68
2024/01/25 06:39:54;;;;;;;33.63;4.25;;;7.90;99.90;;;;;;5009665;28;20714;-68
2024/01/25 06:42:19;;;;;;;32.00;5.47;;;7.90;99.90;;;;;;5004617;28;20029;-68
2024/01/25 06:44:50;;;;;;;31.25;4.40;;;7.90;99.90;;;;;;5003638;28;20077;-68
2024/01/25 06:47:20;;;;;;;40.85;4.55;;;7.80;99.90;;;;;;5007272;23;20041;-68
2024/01/25 06:49:51;;;;;;;27.98;3.63;;;7.80;99.90;;;;;;4997829;28;20038;-68
2024/01/25 06:52:17;;;;;;;33.08;4.35;;;7.80;99.90;;;;;;5000607;28;20022;-68
2024/01/25 06:54:47;;;;;;;23.83;3.53;;;7.80;99.90;;;;;;5007840;28;20408;-68
2024/01/25 06:57:14;;;;;;;26.85;3.55;;;7.80;99.90;;;;;;5001979;28;20053;-68
2024/01/25 06:59:39;;;;;;;30.42;4.57;;;7.70;99.90;;;;;;5004867;28;20642;-68
2024/01/25 07:02:07;;;;;;;21.38;3.33;;;7.70;99.90;;;;;;5005415;28;20045;-68
2024/01/25 07:04:33;;;;;;;;;;;7.70;99.90;;;;;;4996105;28;20705;-68
2024/01/25 07:06:59;;;;;;;30.45;5.18;;;7.70;99.90;;;;;;4996735;28;19916;-68
2024/01/25 07:09:25;;;;;;;20.88;3.30;;;7.70;99.90;;;;;;5007063;28;20037;-69
2024/01/25 07:11:53;;;;;;;26.83;4.68;;;7.60;99.90;;;;;;5017244;28;20601;-69
2024/01/25 07:14:21;;;;;;;33.20;4.90;;;7.60;99.90;;;;;;5025159;28;20040;-69
2024/01/25 07:16:47;;;;;;;26.45;3.38;;;7.60;99.90;;;;;;5018900;28;20117;-69
2024/01/25 07:19:13;;;;;;;30.90;4.18;;;7.60;99.90;;;;;;5015616;28;20104;-69
2024/01/25 07:21:40;;;;;;;26.90;4.07;;;7.60;99.90;;;;;;5026395;28;20037;-69
2024/01/25 07:24:06;;;;;;;32.65;4.82;;;7.50;99.90;;;;;;5025328;28;20037;-69
2024/01/25 07:26:31;;;;;;;35.90;5.18;;;7.50;99.90;;;;;;5022709;28;20033;-69
2024/01/25 07:28:59;;;;;;;33.08;4.50;;;7.40;99.90;;;;;;5025003;28;20125;-69
2024/01/25 07:31:25;;;;;;;;;;;7.40;99.90;;;;;;5025553;28;20025;-69
2024/01/25 07:33:51;;;;;;;34.65;4.47;;;7.40;99.90;;;;;;5019197;28;19913;-69
2024/01/25 07:36:20;;;;;;;34.03;4.47;;;7.40;99.90;;;;;;5007716;28;20174;-69
2024/01/25 07:38:48;;;;;;;31.20;3.78;;;7.40;99.90;;;;;;5003251;28;20041;-69
2024/01/25 07:41:17;;;;;;;30.90;4.18;;;7.40;99.90;;;;;;5004148;28;20053;-69
2024/01/25 07:43:42;;;;;;;28.13;4.30;;;7.40;99.90;;;;;;5000859;28;20150;-69
2024/01/25 07:46:08;;;;;;;37.10;5.18;;;7.50;99.90;;;;;;5004022;28;20488;-69
2024/01/25 07:48:34;;;;;;;27.38;4.15;;;7.50;99.90;;;;;;5003570;28;20039;-69
2024/01/25 07:51:02;;;;;;;33.10;4.32;;;7.50;99.90;;;;;;5003148;28;20433;-69
2024/01/25 07:53:28;;;;;;;40.75;4.10;;;7.50;99.90;;;;;;5008667;28;20158;-69
2024/01/25 07:55:56;;;;;;;35.88;4.25;;;7.50;99.90;;;;;;5006061;28;20573;-69
2024/01/25 07:58:22;;;;;;;38.97;5.28;;;7.50;99.90;;;;;;5007748;28;20034;-69
2024/01/25 08:00:47;;;;;;;42.47;5.05;;;7.50;99.90;;;;;;5005079;28;20038;-69
2024/01/25 08:03:16;;;;;;;31.35;4.60;;;7.50;99.90;;;;;;5014729;28;20127;-69
2024/01/25 08:05:44;;;;;;;27.42;4.85;;;7.50;99.90;;;;;;5001751;28;20033;-69
2024/01/25 08:08:10;;;;;;;39.97;5.25;;;7.60;99.90;;;;;;5012562;28;20034;-69
2024/01/25 08:10:40;;;;;;;30.52;4.03;;;7.50;99.90;;;;;;5012917;28;20033;-69
2024/01/25 08:13:08;;;;;;;32.30;4.68;;;7.50;99.90;;;;;;5003498;28;20394;-69
2024/01/25 08:15:34;;;;;;;32.88;5.25;;;7.60;99.90;;;;;;4998005;28;20026;-69
2024/01/25 08:18:02;;;;;;;34.58;4.95;;;7.50;99.90;;;;;;5008209;28;20462;-69
2024/01/25 08:20:33;;;;;;;30.08;3.58;;;7.50;99.90;;;;;;5000624;28;20415;-69
2024/01/25 08:22:59;;;;;;;33.13;4.95;;;7.50;99.90;;;;;;5004269;28;20038;-69
2024/01/25 08:25:27;;;;;;;30.60;5.65;;;7.50;99.90;;;;;;5024415;28;20033;-69
2024/01/25 08:27:57;;;;;;;32.10;5.07;;;7.60;99.90;;;;;;5005490;28;20517;-69
2024/01/25 08:30:25;;;;;;;31.67;4.72;;;7.60;99.90;;;;;;4995272;28;20034;-69
2024/01/25 08:32:54;;;;;;;33.95;5.00;;;7.60;99.90;;;;;;5003396;28;20492;-69
2024/01/25 08:35:21;;;;;;;32.90;4.85;;;7.60;99.90;;;;;;5013231;28;20124;-69
2024/01/25 08:37:47;;;;;;;33.45;5.03;;;7.60;99.90;;;;;;5010812;28;20034;-69
2024/01/25 08:40:13;;;;;;;35.17;4.95;;;7.60;99.90;;;;;;5017568;28;20030;-69
2024/01/25 08:42:41;;;;;;;29.10;4.35;;;7.60;99.90;;;;;;5005989;28;20072;-69
2024/01/25 08:45:09;;;;;;;37.90;5.32;;;7.60;99.90;;;;;;5000640;28;20045;-69
2024/01/25 08:47:36;;;;;;;30.35;4.20;;;7.60;99.90;;;;;;5003666;28;20663;-70
2024/01/25 08:50:03;;;;;;;37.92;4.70;;;7.60;99.90;;;;;;5001239;28;20468;-69
2024/01/25 08:52:31;;;;;;;23.88;4.07;;;7.70;99.90;;;;;;5008779;28;20030;-69
2024/01/25 08:55:01;;;;;;;30.30;4.53;;;7.70;99.90;;;;;;5006625;28;20031;-69
2024/01/25 08:57:29;;;;;;;36.60;4.75;;;7.70;99.90;;;;;;5009164;28;20022;-69
2024/01/25 08:59:54;;;;;;;35.97;5.10;;;7.70;99.90;;;;;;5006225;28;20042;-69
2024/01/25 09:02:26;;;;;;;36.85;5.50;;;7.80;99.90;;;;;;4996622;28;20493;-69
2024/01/25 09:04:53;;;;;;;39.53;4.07;;;7.80;99.90;;;;;;4999079;28;20038;-69
2024/01/25 09:07:22;;;;;;;34.30;4.60;;;7.70;99.90;;;;;;5002114;28;20022;-69
2024/01/25 09:09:52;;;;;;;35.17;4.30;;;7.70;99.90;;;;;;5011555;28;20547;-69
2024/01/25 09:12:17;;;;;;;28.25;4.78;;;7.70;99.90;;;;;;5015499;28;20038;-70
2024/01/25 09:14:45;;;;;;;28.20;4.28;;;7.70;99.90;;;;;;5011602;28;20392;-70
2024/01/25 09:17:11;;;;;;;;;;;7.70;99.90;;;;;;5008803;28;20174;-70
2024/01/25 09:19:37;;;;;;;29.70;4.75;;;7.70;99.90;;;;;;5007087;28;20387;-70
2024/01/25 09:22:04;;;;;;;30.83;3.72;;;7.70;99.90;;;;;;5004548;28;20021;-70
2024/01/25 09:24:31;;;;;;;25.80;4.97;;;7.70;99.90;;;;;;5004890;28;20142;-70
2024/01/25 09:26:59;;;;;;;44.85;5.97;;;7.70;99.90;;;;;;5007245;28;20548;-70
2024/01/25 09:29:25;;;;;;;38.90;6.00;;;7.70;99.90;;;;;;5014067;28;20462;-70
2024/01/25 09:31:51;;;;;;;37.58;5.15;;;7.70;99.90;;;;;;5015401;28;20109;-70
2024/01/25 09:34:19;;;;;;;40.90;5.25;;;7.70;99.90;;;;;;5017569;28;20025;-70
2024/01/25 09:36:47;;;;;;;22.60;4.03;;;7.70;99.90;;;;;;5017225;28;20041;-70
2024/01/25 09:39:18;;;;;;;27.98;4.10;;;7.80;99.90;;;;;;5007631;28;20125;-70
2024/01/25 09:41:44;;;;;;;28.17;4.47;;;7.80;99.90;;;;;;5003649;28;20030;-70
2024/01/25 09:44:17;;;;;;;27.55;4.40;;;7.80;99.90;;;;;;5008701;28;20681;-70
2024/01/25 09:46:45;;;;;;;40.15;4.97;;;7.70;99.90;;;;;;5002507;28;20083;-70
2024/01/25 09:49:14;;;;;;;30.10;4.85;;;7.80;99.90;;;;;;5016900;28;20040;-70
2024/01/25 09:51:43;;;;;;;25.30;5.00;;;7.80;99.90;;;;;;5003346;28;20030;-70
2024/01/25 09:54:15;;;;;;;33.40;4.82;;;7.90;99.90;;;;;;5006561;28;20034;-69
2024/01/25 09:56:44;;;;;;;33.80;4.85;;;7.90;99.90;;;;;;5001630;28;20030;-70
2024/01/25 09:59:09;;;;;;;38.47;5.38;;;7.90;99.90;;;;;;5002375;28;20034;-70
2024/01/25 10:01:35;;;;;;;26.08;4.68;;;7.90;99.90;;;;;;5016251;28;20044;-70
2024/01/25 10:04:06;;;;;;;25.02;5.15;;;7.90;99.90;;;;;;5012223;28;20065;-70
2024/01/25 10:06:34;;;;;;;38.95;5.00;;;8.00;99.90;;;;;;5012787;28;20060;-70
2024/01/25 10:09:03;;;;;;;24.02;4.75;;;8.00;99.90;;;;;;4995253;28;20030;-70
2024/01/25 10:11:35;;;;;;;29.60;4.65;;;8.00;99.90;;;;;;5010729;28;20125;-70
2024/01/25 10:14:01;;;;;;;35.97;5.10;;;8.00;99.90;;;;;;5001313;28;20049;-70
2024/01/25 10:16:32;;;;;;;35.35;5.50;;;8.00;99.90;;;;;;5006580;28;20025;-70
2024/01/25 10:19:00;;;;;;;29.30;4.65;;;8.00;99.90;;;;;;5014452;28;20084;-70
2024/01/25 10:21:27;;;;;;;34.78;4.82;;;8.00;99.90;;;;;;5012427;28;20025;-70
2024/01/25 10:23:57;;;;;;;31.33;5.20;;;8.00;99.90;;;;;;5013170;28;20407;-70
2024/01/25 10:26:28;;;;;;;30.77;5.68;;;8.00;99.90;;;;;;4997394;28;20026;-70
2024/01/25 10:28:56;;;;;;;34.13;4.70;;;8.10;99.90;;;;;;4996497;28;20254;-71
2024/01/25 10:31:28;;;;;;;27.63;4.95;;;8.10;99.90;;;;;;5006078;28;20468;-70
2024/01/25 10:33:55;;;;;;;36.55;6.78;;;8.00;99.90;;;;;;5006129;28;20077;-70
2024/01/25 10:36:26;;;;;;;29.80;5.25;;;8.00;99.90;;;;;;5008154;28;20038;-70
2024/01/25 10:38:53;;;;;;;37.65;5.60;;;8.10;99.90;;;;;;5022047;28;20039;-70
2024/01/25 10:41:19;;;;;;;28.77;5.78;;;8.10;99.90;;;;;;5006317;28;20044;-70
2024/01/25 10:43:45;;;;;;;20.67;5.32;;;8.20;99.90;;;;;;4997606;28;20436;-70
2024/01/25 10:46:11;;;;;;;33.97;5.82;;;8.20;99.90;;;;;;5005190;28;20087;-70
2024/01/25 10:48:38;;;;;;;27.10;5.13;;;8.20;99.90;;;;;;5000936;28;20038;-70
2024/01/25 10:51:05;;;;;;;26.50;4.38;;;8.30;99.90;;;;;;5003093;28;20034;-70
2024/01/25 10:53:34;;;;;;;35.90;5.57;;;8.30;99.90;;;;;;5014672;28;20060;-70
2024/01/25 10:56:01;;;;;;;42.50;5.03;;;8.40;99.90;;;;;;5005721;28;20037;-70
2024/01/25 10:58:31;;;;;;;41.27;5.93;;;8.40;99.90;;;;;;5009947;28;20104;-70
2024/01/25 11:00:59;;;;;;;30.73;4.82;;;8.40;99.90;;;;;;5006863;28;20431;-70
2024/01/25 11:03:31;;;;;;;41.95;5.68;;;8.50;99.90;;;;;;5011881;28;20091;-70
2024/01/25 11:06:10;;;;;;;42.40;6.40;;;8.50;99.90;;;;;;5006209;28;20034;-70
2024/01/25 11:08:41;;;;;;;36.13;5.15;;;8.50;99.90;;;;;;5004402;28;20145;-70
2024/01/25 11:11:10;;;;;;;35.08;5.50;;;8.50;99.90;;;;;;5006794;28;20042;-70
2024/01/25 11:13:40;;;;;;;27.55;4.30;;;8.50;99.90;;;;;;5003893;28;20474;-70
2024/01/25 11:16:16;;;;;;;35.72;5.43;;;8.50;99.90;;;;;;5010941;28;20035;-70
2024/01/25 11:18:49;;;;;;;32.38;4.68;;;8.60;99.90;;;;;;5010079;28;20124;-70
2024/01/25 11:21:28;;;;;;;35.22;5.20;;;8.60;99.90;;;;;;5016851;28;20132;-66
2024/01/25 11:24:01;;;;;;;30.40;5.90;;;8.70;99.90;;;;;;5021452;28;20428;-71
2024/01/25 11:26:29;;;;;;;20.60;3.75;;;8.80;99.90;;;;;;5018800;28;20034;-71
2024/01/25 11:28:59;;;;;;;26.67;4.63;;;8.80;99.90;;;;;;5008162;28;20055;-71
2024/01/25 11:31:29;;;;;;;28.92;4.78;;;8.80;99.90;;;;;;5001690;28;20032;-71
2024/01/25 11:34:01;;;;;;;28.92;6.43;;;8.80;99.90;;;;;;5015115;28;20030;-70
2024/01/25 11:36:29;;;;;;;28.27;4.45;;;8.80;99.90;;;;;;5007709;28;20183;-70
2024/01/25 11:38:55;;;;;;;;;;;8.70;99.90;;;;;;4998344;28;20066;-70
2024/01/25 11:41:21;;;;;;;21.95;3.70;;;8.70;99.90;;;;;;5005703;28;19916;-70
2024/01/25 11:43:50;;;;;;;30.38;3.95;;;8.60;99.90;;;;;;5001109;28;20038;-70
2024/01/25 11:46:16;;;;;;;26.13;4.10;;;8.60;99.90;;;;;;5010530;28;20133;-71
2024/01/25 11:48:47;;;;;;;35.63;5.35;;;8.70;99.90;;;;;;5008927;28;20070;-70
2024/01/25 11:51:14;;;;;;;31.00;5.15;;;8.80;99.90;;;;;;5014607;28;20030;-71
2024/01/25 11:53:41;;;;;;;32.33;4.53;;;8.90;99.90;;;;;;5015864;28;20041;-70
2024/01/25 11:56:13;;;;;;;32.25;5.20;;;9.00;99.90;;;;;;5021429;28;20044;-71
2024/01/25 11:58:41;;;;;;;27.95;4.97;;;8.90;99.90;;;;;;5011469;28;21369;-70
2024/01/25 12:01:13;;;;;;;33.45;4.47;;;8.90;99.90;;;;;;5016449;28;20593;-70
2024/01/25 12:03:40;;;;;;;41.03;5.13;;;8.90;99.90;;;;;;5010931;28;20110;-70
2024/01/25 12:06:09;;;;;;;23.45;3.95;;;8.80;99.90;;;;;;5011383;28;20501;-70
2024/01/25 12:08:38;;;;;;;35.45;4.85;;;8.80;99.90;;;;;;5006097;28;20057;-71
2024/01/25 12:11:09;;;;;;;27.48;4.47;;;8.70;99.90;;;;;;5008778;28;20669;-71
2024/01/25 12:13:39;;;;;;;24.50;3.70;;;8.70;99.90;;;;;;5001470;28;20033;-71
2024/01/25 12:16:06;;;;;;;34.63;4.90;;;8.70;99.90;;;;;;5001868;28;20022;-70
2024/01/25 12:18:32;;;;;;;22.23;3.75;;;8.70;99.90;;;;;;5006156;28;20029;-71
2024/01/25 12:21:05;;;;;;;25.85;4.50;;;8.70;99.90;;;;;;5005489;28;20026;-71
2024/01/25 12:23:40;;;;;;;26.20;4.53;;;8.60;99.90;;;;;;5001074;28;20030;-70
2024/01/25 12:26:10;;;;;;;29.52;4.78;;;8.60;99.90;;;;;;4997605;28;20045;-71
2024/01/25 12:28:38;;;;;;;21.17;4.45;;;8.60;99.90;;;;;;4997852;28;20076;-70
2024/01/25 12:31:06;;;;;;;31.88;4.80;;;8.50;99.90;;;;;;5012473;28;20100;-71
2024/01/25 12:33:35;;;;;;;33.05;5.63;;;8.60;99.90;;;;;;5001060;28;20066;-71
2024/01/25 12:36:04;;;;;;;27.75;4.40;;;8.60;99.90;;;;;;5009311;28;20034;-71
2024/01/25 12:38:33;;;;;;;29.92;4.47;;;8.70;99.90;;;;;;5009185;28;20638;-71
2024/01/25 12:41:02;;;;;;;27.17;4.25;;;8.80;99.90;;;;;;5001906;28;20044;-71
2024/01/25 12:43:31;;;;;;;30.20;4.63;;;8.90;99.90;;;;;;4999580;28;20021;-71
2024/01/25 12:45:59;;;;;;;21.52;3.85;;;9.10;99.90;;;;;;5015848;22;20504;-71
2024/01/25 12:48:24;;;;;;;32.78;5.18;;;9.20;99.90;;;;;;5019167;28;20049;-71
2024/01/25 12:50:50;;;;;;;25.45;5.43;;;9.40;99.90;;;;;;5021062;28;20496;-71
2024/01/25 12:53:18;;;;;;;28.52;4.38;;;9.50;99.90;;;;;;5024227;28;20026;-71